Time;durP1;ratioP1;P1;durP2;ratioP2;P2;SDS_P1;SDS_P2;PMS_P1;PMS_P2;Temp;Humidity;BMP_temperature;BMP_pressure;BME280_temperature;BME280_humidity;BME280_pressure;Samples;Min_cycle;Max_cycle;Signal;HPM_P1;HPM_P2
2022/12/25 00:01:09;;;;;;;17.55;9.40;;;6.80;99.90;;;;;;5003964;28;20486;-63
2022/12/25 00:03:35;;;;;;;24.92;11.13;;;6.80;99.90;;;;;;4994027;28;20039;-64
2022/12/25 00:06:01;;;;;;;25.67;12.90;;;6.70;99.90;;;;;;5010068;28;20075;-65
2022/12/25 00:08:26;;;;;;;34.35;16.25;;;6.60;99.90;;;;;;5000145;28;20027;-62
2022/12/25 00:11:00;;;;;;;32.10;15.57;;;6.50;99.90;;;;;;4998420;28;20034;-63
2022/12/25 00:13:26;;;;;;;28.75;12.95;;;6.50;99.90;;;;;;5003273;28;20088;-63
2022/12/25 00:15:52;;;;;;;24.77;12.50;;;6.40;99.90;;;;;;4993965;28;20038;-63
2022/12/25 00:18:17;;;;;;;22.98;11.48;;;6.40;99.90;;;;;;4989723;28;20062;-63
2022/12/25 00:20:43;;;;;;;23.23;11.73;;;6.40;99.90;;;;;;5002598;28;20053;-64
2022/12/25 00:23:09;;;;;;;26.85;11.48;;;6.50;99.90;;;;;;5011108;28;20049;-63
2022/12/25 00:25:38;;;;;;;30.33;13.45;;;6.50;99.90;;;;;;5008824;28;20133;-63
2022/12/25 00:28:04;;;;;;;27.48;12.93;;;6.40;99.90;;;;;;5006746;28;20473;-63
2022/12/25 00:30:29;;;;;;;24.23;11.13;;;6.40;99.90;;;;;;5001644;28;20034;-63
2022/12/25 00:32:55;;;;;;;23.83;9.80;;;6.30;99.90;;;;;;5005225;28;20048;-65
2022/12/25 00:35:21;;;;;;;24.30;10.32;;;6.40;99.90;;;;;;5004397;28;20037;-63
2022/12/25 00:37:46;;;;;;;36.25;13.85;;;6.50;99.90;;;;;;5007296;28;20060;-64
2022/12/25 00:40:12;;;;;;;25.42;11.60;;;6.50;99.90;;;;;;5006583;28;20038;-64
2022/12/25 00:42:38;;;;;;;26.55;12.80;;;6.40;99.90;;;;;;5001945;28;20635;-65
2022/12/25 00:45:04;;;;;;;26.67;13.35;;;6.40;99.90;;;;;;5006214;28;20042;-64
2022/12/25 00:47:30;;;;;;;28.20;14.60;;;6.40;99.90;;;;;;5003012;28;20026;-63
2022/12/25 00:49:56;;;;;;;32.35;14.07;;;6.40;99.90;;;;;;5013244;28;20438;-63
2022/12/25 00:52:21;;;;;;;26.20;12.43;;;6.40;99.90;;;;;;5002559;28;20030;-64
2022/12/25 00:54:47;;;;;;;23.30;11.13;;;6.30;99.90;;;;;;4988727;28;20034;-65
2022/12/25 00:57:13;;;;;;;33.78;11.25;;;6.20;99.90;;;;;;5004519;28;20468;-64
2022/12/25 00:59:38;;;;;;;19.77;9.90;;;6.20;99.90;;;;;;5008159;28;20378;-64
2022/12/25 01:02:22;;;;;;;19.35;10.18;;;6.20;99.90;;;;;;5001428;28;20080;-65
2022/12/25 01:04:49;;;;;;;23.17;10.82;;;6.20;99.90;;;;;;4994536;28;20110;-63
2022/12/25 01:07:18;;;;;;;18.85;9.68;;;6.20;99.90;;;;;;5005246;28;20026;-65
2022/12/25 01:12:31;;;;;;;20.05;10.27;;;6.20;99.90;;;;;;5008662;28;20044;-63
2022/12/25 01:14:56;;;;;;;585.85;29.90;;;6.30;99.90;;;;;;5000446;28;20034;-63
2022/12/25 01:17:22;;;;;;;459.83;23.70;;;6.30;99.90;;;;;;5006174;28;20037;-64
2022/12/25 01:19:48;;;;;;;36.28;13.98;;;6.10;99.90;;;;;;5003663;28;20057;-63
2022/12/25 01:22:15;;;;;;;152.20;14.75;;;6.00;99.90;;;;;;5007993;28;20394;-63
2022/12/25 01:24:42;;;;;;;32.35;13.10;;;6.10;99.90;;;;;;5007246;28;20038;-66
2022/12/25 01:27:08;;;;;;;26.63;12.98;;;6.10;99.90;;;;;;5007211;28;20455;-64
2022/12/25 01:29:34;;;;;;;28.52;12.98;;;6.10;99.90;;;;;;5005807;28;20034;-64
2022/12/25 01:31:59;;;;;;;24.45;12.70;;;6.10;99.90;;;;;;4994383;28;20046;-63
2022/12/25 01:34:25;;;;;;;25.50;12.27;;;6.10;99.90;;;;;;5005325;28;20056;-65
2022/12/25 01:36:50;;;;;;;22.80;11.15;;;6.20;99.90;;;;;;5004651;28;20038;-65
2022/12/25 01:39:16;;;;;;;25.98;11.30;;;6.30;99.90;;;;;;4987167;28;20035;-64
2022/12/25 01:41:42;;;;;;;23.15;10.82;;;6.30;99.90;;;;;;4988075;28;20034;-65
2022/12/25 01:44:13;;;;;;;18.92;10.65;;;6.30;99.90;;;;;;5005014;28;20030;-63
2022/12/25 01:46:39;;;;;;;19.17;10.60;;;6.30;99.90;;;;;;5007436;28;20109;-64
2022/12/25 01:49:18;;;;;;;20.92;9.98;;;6.40;99.90;;;;;;4993848;28;20053;-64
2022/12/25 01:51:52;;;;;;;19.67;9.75;;;6.40;99.90;;;;;;5022394;28;20040;-66
2022/12/25 01:54:28;;;;;;;20.35;10.45;;;6.40;99.90;;;;;;5000425;28;20554;-64
2022/12/25 01:56:58;;;;;;;21.23;10.70;;;6.50;99.90;;;;;;4995766;28;20035;-63
2022/12/25 01:59:24;;;;;;;;;;;6.50;99.90;;;;;;5008642;28;20057;-63
2022/12/25 02:01:50;;;;;;;19.02;10.32;;;6.50;99.90;;;;;;5001445;28;19921;-63
2022/12/25 02:04:38;;;;;;;18.63;10.32;;;6.40;99.90;;;;;;4992145;28;20037;-65
2022/12/25 02:07:22;;;;;;;19.75;10.95;;;6.30;99.90;;;;;;5007570;28;20286;-64
2022/12/25 02:09:48;;;;;;;21.02;11.02;;;6.30;99.90;;;;;;5001086;28;20662;-65
2022/12/25 02:12:25;;;;;;;21.20;10.48;;;6.30;99.90;;;;;;5002395;28;20474;-64
2022/12/25 02:14:55;;;;;;;19.67;10.98;;;6.30;99.90;;;;;;5011022;28;20062;-64
2022/12/25 02:17:35;;;;;;;20.17;10.18;;;6.40;99.90;;;;;;5004845;28;20065;-65
2022/12/25 02:20:34;;;;;;;29.23;10.75;;;6.40;99.90;;;;;;4992869;28;20121;-64
2022/12/25 02:23:46;;;;;;;20.05;10.32;;;6.40;99.90;;;;;;4999812;28;20073;-64
2022/12/25 02:26:36;;;;;;;18.85;9.77;;;6.30;99.90;;;;;;5000387;28;20375;-64
2022/12/25 02:29:08;;;;;;;19.67;10.23;;;6.30;99.90;;;;;;5006257;28;20030;-64
2022/12/25 02:31:40;;;;;;;19.35;10.18;;;6.30;99.90;;;;;;5011449;28;20079;-64
2022/12/25 02:34:31;;;;;;;22.20;9.77;;;6.30;99.90;;;;;;4991923;28;20034;-64
2022/12/25 02:37:06;;;;;;;20.58;10.00;;;6.40;99.90;;;;;;5019718;28;20128;-64
2022/12/25 02:39:58;;;;;;;19.70;10.43;;;6.40;99.90;;;;;;5008637;28;20479;-63
2022/12/25 03:07:50;;;;;;;26.13;12.38;;;6.50;99.90;;;;;;5007931;28;20036;-66
2022/12/25 03:13:17;;;;;;;24.38;11.65;;;6.50;99.90;;;;;;5002829;28;20060;-63
2022/12/25 03:18:29;;;;;;;25.58;12.63;;;6.50;99.90;;;;;;4990166;28;20081;-64
2022/12/25 03:31:10;;;;;;;22.95;11.13;;;6.40;99.90;;;;;;5008520;28;20073;-63
2022/12/25 03:32:16;;;;;;;16.58;9.07;;;6.40;99.90;;;;;;5007989;28;20045;-64
2022/12/25 03:35:23;;;;;;;20.73;8.07;;;6.40;99.90;;;;;;4996132;28;20088;-64
2022/12/25 04:37:22;;;;;;;21.00;8.00;;;6.50;99.90;;;;;;5003792;28;20079;-64
2022/12/25 04:39:48;;;;;;;18.38;9.93;;;6.50;99.90;;;;;;5007943;28;20034;-65
2022/12/25 04:42:15;;;;;;;17.40;9.32;;;6.50;99.90;;;;;;5004117;28;20082;-64
2022/12/25 04:44:41;;;;;;;17.30;9.10;;;6.50;99.90;;;;;;4996671;28;20522;-65
2022/12/25 04:47:06;;;;;;;17.00;8.55;;;6.50;99.90;;;;;;5002531;28;20070;-64
2022/12/25 04:49:32;;;;;;;18.65;8.23;;;6.40;99.90;;;;;;5021212;28;20069;-65
2022/12/25 04:51:57;;;;;;;13.85;7.38;;;6.40;99.90;;;;;;5002320;28;20034;-65
2022/12/25 04:54:23;;;;;;;13.60;6.75;;;6.40;99.90;;;;;;5007747;28;20038;-64
2022/12/25 04:56:49;;;;;;;12.30;5.43;;;6.40;99.90;;;;;;5004862;28;20066;-63
2022/12/25 04:59:14;;;;;;;14.07;5.70;;;6.40;99.90;;;;;;5006981;28;20077;-65
2022/12/25 05:01:40;;;;;;;11.27;5.63;;;6.40;99.90;;;;;;5002247;28;20030;-66
2022/12/25 05:04:06;;;;;;;12.07;5.05;;;6.50;99.90;;;;;;4989077;28;20045;-64
2022/12/25 05:06:32;;;;;;;8.07;4.63;;;6.40;99.90;;;;;;5005548;28;20100;-64
2022/12/25 05:08:57;;;;;;;11.18;4.22;;;6.50;99.90;;;;;;5006739;28;20125;-66
2022/12/25 05:11:23;;;;;;;9.60;3.83;;;6.50;99.90;;;;;;4993363;28;20041;-63
2022/12/25 05:13:49;;;;;;;9.80;3.83;;;6.50;99.90;;;;;;4999777;28;20050;-64
2022/12/25 05:16:16;;;;;;;6.60;2.83;;;6.60;99.90;;;;;;5007253;28;20101;-64
2022/12/25 05:18:42;;;;;;;8.07;3.40;;;6.60;99.90;;;;;;4999402;28;20471;-64
2022/12/25 05:21:10;;;;;;;9.73;3.80;;;6.70;99.90;;;;;;4988229;28;20030;-64
2022/12/25 05:23:36;;;;;;;17.23;7.50;;;6.80;99.90;;;;;;5005343;28;20054;-65
2022/12/25 05:26:06;;;;;;;87.68;11.20;;;6.70;99.90;;;;;;5006743;28;20551;-65
2022/12/25 05:28:34;;;;;;;14.20;8.30;;;6.50;99.90;;;;;;4993551;28;20032;-64
2022/12/25 05:30:59;;;;;;;10.73;5.45;;;6.40;99.90;;;;;;5001753;28;20459;-64
2022/12/25 05:33:25;;;;;;;15.05;6.88;;;6.40;99.90;;;;;;5008524;28;20458;-65
2022/12/25 05:35:51;;;;;;;10.50;5.15;;;6.40;99.90;;;;;;5006412;28;20030;-65
2022/12/25 05:38:17;;;;;;;11.18;5.00;;;6.40;99.90;;;;;;5007540;28;20054;-64
2022/12/25 05:40:42;;;;;;;13.82;6.20;;;6.30;99.90;;;;;;4998151;28;20104;-64
2022/12/25 05:43:08;;;;;;;12.40;6.50;;;6.20;99.90;;;;;;5009893;28;20072;-63
2022/12/25 05:45:34;;;;;;;12.80;7.00;;;6.20;99.90;;;;;;5015088;28;20101;-64
2022/12/25 05:48:00;;;;;;;11.82;6.60;;;6.20;99.90;;;;;;5010022;28;20069;-65
2022/12/25 05:50:25;;;;;;;9.65;5.22;;;6.10;99.90;;;;;;5010328;28;20057;-63
2022/12/25 05:52:51;;;;;;;9.48;4.60;;;6.00;99.90;;;;;;5010640;28;20038;-65
2022/12/25 05:55:16;;;;;;;8.73;4.70;;;6.00;99.90;;;;;;5008621;28;20220;-65
2022/12/25 05:57:42;;;;;;;9.98;5.13;;;5.90;99.90;;;;;;5020259;28;20145;-64
2022/12/25 06:00:08;;;;;;;12.00;5.28;;;5.90;99.90;;;;;;5007994;28;20092;-65
2022/12/25 06:02:35;;;;;;;14.13;6.13;;;5.90;99.90;;;;;;5009039;28;20041;-63
2022/12/25 06:05:01;;;;;;;14.15;5.97;;;6.00;99.90;;;;;;5009562;28;20491;-67
2022/12/25 06:07:26;;;;;;;9.98;5.10;;;5.90;99.90;;;;;;5005040;28;20148;-64
2022/12/25 06:09:52;;;;;;;16.35;7.40;;;6.00;99.90;;;;;;5007340;28;20116;-66
2022/12/25 06:12:17;;;;;;;14.23;6.82;;;6.10;99.90;;;;;;5009766;28;20030;-63
2022/12/25 06:14:43;;;;;;;15.75;7.05;;;6.10;99.90;;;;;;4998853;28;20117;-65
2022/12/25 06:17:09;;;;;;;15.75;5.97;;;6.10;99.90;;;;;;4991085;28;20033;-65
2022/12/25 06:19:34;;;;;;;13.15;6.10;;;6.10;99.90;;;;;;5003380;28;20034;-65
2022/12/25 06:22:00;;;;;;;16.80;8.55;;;6.10;99.90;;;;;;4993605;28;20038;-66
2022/12/25 06:24:26;;;;;;;15.40;7.90;;;6.20;99.90;;;;;;5033533;28;20058;-63
2022/12/25 06:26:51;;;;;;;15.90;8.00;;;6.10;99.90;;;;;;5010198;28;20038;-64
2022/12/25 06:29:17;;;;;;;20.85;9.40;;;6.10;99.90;;;;;;5003399;28;20124;-65
2022/12/25 06:31:42;;;;;;;13.45;7.28;;;6.10;99.90;;;;;;5008930;28;20597;-64
2022/12/25 06:34:09;;;;;;;13.05;6.10;;;6.10;99.90;;;;;;5004973;28;20029;-64
2022/12/25 06:36:37;;;;;;;18.02;6.93;;;6.20;99.90;;;;;;5011008;28;20036;-63
2022/12/25 06:39:03;;;;;;;22.50;9.55;;;6.30;99.90;;;;;;5010510;28;20038;-65
2022/12/25 06:41:29;;;;;;;27.50;11.40;;;6.30;99.90;;;;;;5010438;28;20088;-64
2022/12/25 06:43:57;;;;;;;37.58;15.77;;;6.40;99.90;;;;;;5008371;28;20050;-64
2022/12/25 06:46:25;;;;;;;25.65;12.45;;;6.40;99.90;;;;;;5009319;28;20053;-64
2022/12/25 06:48:52;;;;;;;23.10;10.43;;;6.30;99.90;;;;;;5009504;28;20053;-64
2022/12/25 06:51:20;;;;;;;22.35;8.30;;;6.20;99.90;;;;;;5009298;28;20091;-64
2022/12/25 06:53:47;;;;;;;47.72;17.70;;;6.30;99.90;;;;;;5004296;28;20034;-64
2022/12/25 06:56:15;;;;;;;36.22;14.35;;;6.30;99.90;;;;;;5004708;28;20030;-63
2022/12/25 06:58:55;;;;;;;29.23;13.27;;;6.20;99.90;;;;;;5009898;28;20064;-64
2022/12/25 07:01:44;;;;;;;23.77;11.63;;;6.20;99.90;;;;;;5008522;28;20513;-65
2022/12/25 07:04:37;;;;;;;48.67;18.05;;;6.10;99.90;;;;;;5009008;28;20117;-64
2022/12/25 07:07:04;;;;;;;52.42;19.00;;;6.00;99.90;;;;;;5005716;28;20034;-66
2022/12/25 07:09:30;;;;;;;28.52;11.75;;;6.00;99.90;;;;;;5006000;28;20034;-65
2022/12/25 07:12:03;;;;;;;27.48;9.55;;;6.20;99.90;;;;;;5002528;28;20538;-64
2022/12/25 07:14:29;;;;;;;25.95;11.38;;;6.50;99.90;;;;;;5010982;28;20034;-66
2022/12/25 07:16:55;;;;;;;30.13;13.65;;;6.70;99.90;;;;;;5004809;28;20467;-65
2022/12/25 07:19:20;;;;;;;27.77;11.50;;;6.60;99.90;;;;;;4995362;28;20033;-62
2022/12/25 07:21:46;;;;;;;16.08;7.22;;;6.60;99.90;;;;;;5005042;28;20030;-64
2022/12/25 07:24:20;;;;;;;14.82;6.50;;;6.70;99.90;;;;;;5008037;28;20058;-63
2022/12/25 07:26:46;;;;;;;28.90;13.07;;;6.90;99.90;;;;;;5000499;28;20221;-64
2022/12/25 07:29:11;;;;;;;27.25;11.60;;;6.70;99.90;;;;;;5000128;28;20608;-63
2022/12/25 07:31:37;;;;;;;30.05;13.05;;;6.50;99.90;;;;;;4996500;28;20506;-63
2022/12/25 07:34:03;;;;;;;24.65;11.00;;;6.60;99.90;;;;;;5004536;28;20492;-67
2022/12/25 07:36:29;;;;;;;21.77;9.20;;;6.60;99.90;;;;;;5000346;28;20041;-63
2022/12/25 07:38:55;;;;;;;17.80;7.72;;;6.70;99.90;;;;;;4999952;28;20042;-64
2022/12/25 07:41:21;;;;;;;82.63;14.05;;;6.90;99.90;;;;;;4996769;28;20594;-62
2022/12/25 07:43:53;;;;;;;58.45;34.33;;;6.90;99.90;;;;;;4992657;28;20462;-65
2022/12/25 07:46:20;;;;;;;22.42;10.13;;;6.70;99.90;;;;;;4989286;28;20085;-64
2022/12/25 07:48:46;;;;;;;22.27;8.93;;;6.70;99.90;;;;;;4993558;28;20100;-65
2022/12/25 07:51:13;;;;;;;29.15;10.85;;;6.80;99.90;;;;;;5019305;28;20383;-63
2022/12/25 07:53:39;;;;;;;27.05;11.68;;;7.00;99.90;;;;;;5010678;28;20471;-64
2022/12/25 07:56:09;;;;;;;26.25;12.50;;;7.10;99.90;;;;;;4999601;28;20088;-67
2022/12/25 07:58:35;;;;;;;27.17;11.63;;;7.20;99.90;;;;;;4997600;28;20564;-63
2022/12/25 08:01:03;;;;;;;27.58;13.75;;;7.20;99.90;;;;;;5001888;28;20049;-65
2022/12/25 08:03:30;;;;;;;25.90;13.07;;;7.20;99.90;;;;;;4996324;28;20051;-64
2022/12/25 08:06:02;;;;;;;26.60;14.05;;;7.10;99.90;;;;;;4994785;28;20034;-63
2022/12/25 08:08:29;;;;;;;18.55;8.85;;;7.00;99.90;;;;;;5015918;28;20026;-65
2022/12/25 08:10:54;;;;;;;27.38;12.38;;;7.00;99.90;;;;;;5002836;28;20034;-64
2022/12/25 08:13:20;;;;;;;24.30;11.95;;;7.20;99.90;;;;;;5000542;28;20093;-63
2022/12/25 08:15:46;;;;;;;21.58;11.15;;;7.00;99.90;;;;;;5005849;28;20483;-65
2022/12/25 08:18:11;;;;;;;23.15;11.98;;;7.00;99.90;;;;;;5001410;28;20029;-64
2022/12/25 08:20:37;;;;;;;23.55;12.32;;;7.10;99.90;;;;;;5016402;28;20033;-62
2022/12/25 08:23:03;;;;;;;29.60;12.70;;;7.00;99.90;;;;;;4998673;28;20057;-63
2022/12/25 08:25:29;;;;;;;22.80;11.25;;;6.90;99.90;;;;;;5012512;28;20042;-65
2022/12/25 08:27:55;;;;;;;24.45;11.48;;;6.80;99.90;;;;;;5011814;28;20036;-64
2022/12/25 08:30:21;;;;;;;21.23;9.50;;;6.90;99.90;;;;;;5007598;28;20499;-63
2022/12/25 08:32:46;;;;;;;21.27;9.35;;;7.10;99.90;;;;;;5005889;28;20100;-62
2022/12/25 08:35:12;;;;;;;18.95;10.35;;;7.30;99.90;;;;;;5009606;28;20034;-63
2022/12/25 08:37:38;;;;;;;19.05;9.95;;;7.50;99.90;;;;;;5010032;28;20557;-63
2022/12/25 08:40:04;;;;;;;20.00;10.18;;;7.40;99.90;;;;;;5007074;28;20121;-65
2022/12/25 08:42:30;;;;;;;19.98;9.73;;;7.20;99.90;;;;;;4997268;28;20046;-63
2022/12/25 08:44:55;;;;;;;16.52;9.27;;;7.10;99.90;;;;;;4992854;28;20042;-65
2022/12/25 08:47:21;;;;;;;18.50;10.07;;;7.10;99.90;;;;;;5005475;28;20087;-63
2022/12/25 08:49:47;;;;;;;18.90;10.07;;;7.10;99.90;;;;;;5001987;28;20030;-64
2022/12/25 08:52:12;;;;;;;79.40;39.28;;;7.10;99.90;;;;;;5004693;28;20153;-64
2022/12/25 08:54:38;;;;;;;94.82;48.58;;;7.10;99.90;;;;;;5000621;28;20406;-66
2022/12/25 08:57:04;;;;;;;28.65;16.17;;;7.10;99.90;;;;;;5012365;28;20038;-64
2022/12/25 08:59:29;;;;;;;30.20;15.70;;;7.10;99.90;;;;;;4991012;28;20474;-65
2022/12/25 09:01:55;;;;;;;25.80;13.77;;;7.10;99.90;;;;;;4996880;28;20482;-64
2022/12/25 09:04:21;;;;;;;24.40;12.25;;;7.20;99.90;;;;;;4996138;28;20511;-65
2022/12/25 09:06:47;;;;;;;24.85;13.85;;;7.20;99.90;;;;;;4997904;28;20057;-63
2022/12/25 09:09:12;;;;;;;22.35;11.90;;;7.10;99.90;;;;;;4996369;28;20040;-65
2022/12/25 09:11:38;;;;;;;30.23;15.90;;;7.20;99.90;;;;;;5021941;28;20122;-63
2022/12/25 09:14:03;;;;;;;31.33;14.93;;;7.20;99.90;;;;;;5028591;28;20148;-65
2022/12/25 09:16:29;;;;;;;23.13;11.02;;;7.20;99.90;;;;;;5026334;28;20229;-63
2022/12/25 09:18:57;;;;;;;20.60;10.07;;;7.30;99.90;;;;;;5028539;28;20474;-64
2022/12/25 09:21:22;;;;;;;19.70;9.15;;;7.40;99.90;;;;;;5030341;28;20040;-64
2022/12/25 09:23:48;;;;;;;17.00;8.32;;;7.50;99.90;;;;;;5031487;28;20049;-63
2022/12/25 09:26:17;;;;;;;18.17;7.50;;;7.80;99.90;;;;;;5026442;28;20143;-63
2022/12/25 09:28:43;;;;;;;14.57;7.18;;;8.00;99.90;;;;;;5028884;28;20113;-63
2022/12/25 09:31:08;;;;;;;18.92;6.95;;;8.30;99.90;;;;;;5032166;28;20109;-66
2022/12/25 09:33:34;;;;;;;15.02;7.30;;;8.50;99.90;;;;;;5031717;28;20030;-64
2022/12/25 09:36:03;;;;;;;15.02;7.80;;;8.70;99.90;;;;;;5032277;28;20041;-63
2022/12/25 09:38:29;;;;;;;14.65;7.68;;;8.90;99.90;;;;;;5031410;28;20144;-65
2022/12/25 09:41:00;;;;;;;19.92;9.98;;;9.20;99.90;;;;;;5032246;28;20433;-65
2022/12/25 09:43:29;;;;;;;14.38;7.78;;;9.50;99.90;;;;;;5028887;28;20116;-66
2022/12/25 09:45:57;;;;;;;15.35;8.10;;;9.70;99.90;;;;;;5031860;28;20136;-64
2022/12/25 09:48:24;;;;;;;11.23;6.20;;;9.80;99.90;;;;;;5031054;28;20041;-64
2022/12/25 09:50:56;;;;;;;18.90;9.30;;;10.00;99.90;;;;;;5032230;28;20030;-65
2022/12/25 09:53:28;;;;;;;13.88;7.47;;;10.10;99.90;;;;;;5030719;28;20061;-64
2022/12/25 09:56:37;;;;;;;19.55;10.23;;;10.30;99.90;;;;;;5031937;28;20033;-65
2022/12/25 09:59:02;;;;;;;14.85;7.95;;;10.50;99.90;;;;;;5014640;28;20098;-64
2022/12/25 10:01:53;;;;;;;16.55;8.52;;;10.70;99.90;;;;;;5011180;28;20038;-65
2022/12/25 10:05:00;;;;;;;19.05;10.50;;;10.80;99.90;;;;;;5010986;28;20033;-65
2022/12/25 10:07:55;;;;;;;12.35;6.40;;;11.00;99.90;;;;;;4993965;28;20150;-63
2022/12/25 10:10:24;;;;;;;10.10;5.85;;;11.00;99.90;;;;;;4982671;28;20129;-65
2022/12/25 10:13:07;;;;;;;17.63;10.25;;;11.20;99.90;;;;;;5000105;28;20034;-64
2022/12/25 10:15:45;;;;;;;18.33;9.70;;;11.40;99.90;;;;;;5005053;28;20164;-63
2022/12/25 10:18:16;;;;;;;13.98;8.68;;;11.30;99.90;;;;;;5006323;28;20035;-65
2022/12/25 10:20:59;;;;;;;12.13;6.65;;;11.30;99.90;;;;;;4999879;28;20368;-63
2022/12/25 10:23:29;;;;;;;11.02;6.05;;;11.50;99.90;;;;;;4997184;28;20475;-63
2022/12/25 10:25:55;;;;;;;14.18;9.02;;;11.70;99.90;;;;;;5005714;28;20042;-63
2022/12/25 10:28:46;;;;;;;16.67;9.45;;;11.90;99.90;;;;;;5001388;28;20039;-64
2022/12/25 10:31:22;;;;;;;16.95;9.45;;;12.10;99.90;;;;;;5009746;28;20479;-67
2022/12/25 10:33:49;;;;;;;17.23;8.85;;;12.20;99.90;;;;;;5010535;28;20038;-64
2022/12/25 10:36:19;;;;;;;16.10;8.68;;;12.40;99.90;;;;;;5010030;28;20038;-66
2022/12/25 10:38:46;;;;;;;14.38;8.52;;;12.50;99.90;;;;;;5000528;28;20046;-65
2022/12/25 10:41:38;;;;;;;16.45;8.73;;;12.50;99.90;;;;;;5009334;28;20069;-63
2022/12/25 10:44:14;;;;;;;18.65;9.95;;;12.70;99.90;;;;;;5008381;28;20119;-62
2022/12/25 10:46:41;;;;;;;31.70;13.27;;;12.90;99.90;;;;;;5009643;28;20061;-64
2022/12/25 10:49:14;;;;;;;33.95;13.85;;;12.90;99.90;;;;;;5010283;28;20038;-64
2022/12/25 10:51:39;;;;;;;35.63;13.45;;;13.00;99.90;;;;;;5005273;28;20028;-64
2022/12/25 10:54:22;;;;;;;25.52;10.70;;;13.10;99.90;;;;;;5003058;28;20398;-63
2022/12/25 10:56:56;;;;;;;11.13;5.68;;;13.30;99.90;;;;;;5001167;28;20030;-62
2022/12/25 10:59:23;;;;;;;8.07;3.33;;;13.40;99.90;;;;;;4995371;28;20030;-64
2022/12/25 11:01:49;;;;;;;6.43;3.70;;;13.40;99.90;;;;;;4994105;28;20137;-64
2022/12/25 11:04:25;;;;;;;8.00;4.60;;;13.40;99.90;;;;;;5002721;28;20060;-64
2022/12/25 11:07:06;;;;;;;8.65;4.68;;;13.50;99.90;;;;;;5010551;28;20057;-65
2022/12/25 11:09:32;;;;;;;;;;;13.50;99.90;;;;;;5010648;28;21280;-63
2022/12/25 11:11:58;;;;;;;5.97;3.40;;;13.60;99.90;;;;;;5030575;28;19905;-63
2022/12/25 11:14:26;;;;;;;5.78;3.42;;;13.70;99.90;;;;;;5029664;28;20049;-64
2022/12/25 11:16:52;;;;;;;7.07;4.00;;;13.70;99.90;;;;;;5027309;28;20021;-64
2022/12/25 11:19:25;;;;;;;8.52;4.40;;;13.90;99.90;;;;;;5015238;28;20053;-65
2022/12/25 11:21:53;;;;;;;8.18;4.60;;;13.90;99.90;;;;;;5010063;28;20065;-62
2022/12/25 11:24:21;;;;;;;13.52;6.88;;;14.00;99.90;;;;;;5016192;28;20069;-67
2022/12/25 11:26:49;;;;;;;12.20;5.88;;;14.00;99.90;;;;;;5029752;28;20382;-63
2022/12/25 11:29:42;;;;;;;8.98;4.78;;;14.10;99.90;;;;;;5030315;28;20033;-64
2022/12/25 11:32:18;;;;;;;7.57;4.00;;;14.10;99.90;;;;;;5030089;28;20033;-62
2022/12/25 11:34:46;;;;;;;14.45;4.50;;;14.10;99.90;;;;;;5025469;28;20109;-64
2022/12/25 11:37:47;;;;;;;7.30;3.65;;;14.10;99.90;;;;;;5010075;28;20030;-63
2022/12/25 11:40:20;;;;;;;6.85;3.72;;;14.10;99.90;;;;;;5009441;28;20503;-63
2022/12/25 11:42:54;;;;;;;9.40;4.38;;;14.00;99.90;;;;;;5009202;28;20125;-63
2022/12/25 11:45:33;;;;;;;9.30;4.65;;;13.80;99.90;;;;;;5009662;28;20033;-65
2022/12/25 11:48:12;;;;;;;9.23;4.72;;;13.70;99.90;;;;;;5010493;28;20487;-63
2022/12/25 11:50:53;;;;;;;8.25;4.88;;;13.60;99.90;;;;;;5017931;28;20033;-63
2022/12/25 11:53:33;;;;;;;8.70;4.22;;;13.70;99.90;;;;;;5028967;28;20116;-65
2022/12/25 11:56:05;;;;;;;8.52;4.50;;;13.80;99.90;;;;;;5029397;28;20490;-62
2022/12/25 11:58:32;;;;;;;7.50;4.32;;;13.90;99.90;;;;;;5029193;28;20029;-64
2022/12/25 12:01:01;;;;;;;8.50;5.03;;;14.00;99.90;;;;;;5029452;28;20071;-64
2022/12/25 12:03:39;;;;;;;7.80;4.57;;;14.10;99.90;;;;;;5028622;28;20033;-64
2022/12/25 12:06:48;;;;;;;9.52;4.90;;;14.20;99.90;;;;;;5024487;28;20088;-63
2022/12/25 12:09:43;;;;;;;8.27;3.92;;;14.40;99.90;;;;;;5001303;28;20402;-62
2022/12/25 12:12:19;;;;;;;5.88;3.35;;;14.70;99.90;;;;;;5009816;28;20474;-64
2022/12/25 12:14:54;;;;;;;6.53;3.40;;;14.80;99.90;;;;;;5008986;28;20777;-63
2022/12/25 12:17:20;;;;;;;5.88;2.97;;;14.80;99.90;;;;;;5009471;28;20029;-67
2022/12/25 12:19:46;;;;;;;5.32;2.47;;;14.70;99.90;;;;;;5008830;28;20613;-63
2022/12/25 12:22:24;;;;;;;4.55;2.40;;;14.70;99.90;;;;;;5026004;28;20029;-62
2022/12/25 12:24:57;;;;;;;5.38;3.30;;;14.80;99.90;;;;;;5029415;28;20087;-64
2022/12/25 12:27:28;;;;;;;5.38;2.80;;;14.90;99.90;;;;;;5028370;28;20795;-67
2022/12/25 12:29:57;;;;;;;6.10;3.38;;;14.90;99.90;;;;;;5014314;28;20041;-64
2022/12/25 12:32:42;;;;;;;6.13;3.50;;;14.70;99.90;;;;;;5018996;28;20029;-65
2022/12/25 12:35:25;;;;;;;5.93;3.72;;;14.70;99.90;;;;;;5014060;28;20044;-62
2022/12/25 12:38:03;;;;;;;6.88;3.20;;;14.70;99.90;;;;;;5028864;28;20544;-63
2022/12/25 12:40:36;;;;;;;5.63;3.38;;;14.70;99.90;;;;;;5028162;28;20033;-64
2022/12/25 12:43:06;;;;;;;7.40;3.67;;;14.60;99.90;;;;;;5029133;28;20057;-62
2022/12/25 12:45:34;;;;;;;5.50;3.08;;;14.70;99.90;;;;;;5028072;28;20037;-65
2022/12/25 12:48:00;;;;;;;4.65;2.70;;;14.60;99.90;;;;;;5028836;28;20529;-62
2022/12/25 12:50:39;;;;;;;5.68;2.90;;;14.60;99.90;;;;;;5027034;28;20037;-63
2022/12/25 12:53:16;;;;;;;5.00;2.60;;;15.00;99.90;;;;;;5028559;28;20041;-63
2022/12/25 12:55:42;;;;;;;5.05;2.78;;;15.40;99.90;;;;;;5021676;28;20617;-63
2022/12/25 12:58:23;;;;;;;6.53;2.75;;;15.50;99.90;;;;;;5008882;28;20038;-63
2022/12/25 13:00:59;;;;;;;6.45;2.83;;;15.80;99.90;;;;;;5009065;28;20038;-64
2022/12/25 13:03:54;;;;;;;5.45;3.00;;;15.90;99.90;;;;;;5008276;28;20092;-65
2022/12/25 13:06:25;;;;;;;5.18;2.75;;;16.10;99.90;;;;;;4989971;28;20050;-63
2022/12/25 13:09:04;;;;;;;5.00;2.63;;;16.00;99.90;;;;;;4989444;28;20030;-65
2022/12/25 13:11:34;;;;;;;4.72;3.03;;;16.10;99.90;;;;;;4988497;28;20046;-63
2022/12/25 13:14:01;;;;;;;3.78;2.40;;;16.00;99.90;;;;;;4989069;28;20383;-63
2022/12/25 13:16:34;;;;;;;4.25;2.20;;;15.70;99.90;;;;;;4988463;28;20030;-65
2022/12/25 13:19:05;;;;;;;3.92;2.10;;;15.70;99.90;;;;;;4988663;28;20558;-65
2022/12/25 13:21:32;;;;;;;6.25;2.30;;;15.80;99.90;;;;;;5012890;28;20479;-64
2022/12/25 13:24:00;;;;;;;6.13;1.95;;;16.00;99.90;;;;;;5008582;28;20058;-64
2022/12/25 13:26:26;;;;;;;6.53;2.20;;;16.10;99.90;;;;;;5007980;28;20063;-64
2022/12/25 13:28:54;;;;;;;3.63;1.95;;;16.30;99.90;;;;;;5008501;28;20036;-64
2022/12/25 13:31:26;;;;;;;4.43;2.53;;;16.20;99.90;;;;;;5007635;28;20061;-63
2022/12/25 13:34:03;;;;;;;4.03;2.17;;;16.10;99.90;;;;;;5008521;28;20040;-63
2022/12/25 13:36:34;;;;;;;6.63;2.00;;;16.00;99.90;;;;;;5007816;28;20037;-64
2022/12/25 13:39:00;;;;;;;3.63;2.30;;;16.00;99.90;;;;;;5008719;28;20026;-64
2022/12/25 13:44:22;;;;;;;3.65;1.90;;;16.00;99.90;;;;;;5008440;28;20032;-63
2022/12/25 13:46:48;;;;;;;3.15;1.88;;;16.10;99.90;;;;;;5008104;28;20034;-61
2022/12/25 13:49:19;;;;;;;2.35;1.50;;;16.30;99.90;;;;;;5008638;28;20471;-63
2022/12/25 13:51:45;;;;;;;2.95;1.38;;;16.30;99.90;;;;;;5024444;28;20345;-64
2022/12/25 13:54:13;;;;;;;2.20;1.40;;;16.40;99.90;;;;;;5020589;28;20119;-63
2022/12/25 13:56:54;;;;;;;4.45;1.90;;;16.30;99.90;;;;;;5007495;28;20034;-64
2022/12/25 13:59:22;;;;;;;2.55;1.50;;;16.40;99.90;;;;;;5008391;28;20034;-63
2022/12/25 14:01:49;;;;;;;3.33;1.70;;;16.40;99.90;;;;;;5007388;28;20025;-64
2022/12/25 14:04:20;;;;;;;2.60;1.60;;;16.30;99.90;;;;;;5008301;28;20041;-62
2022/12/25 14:06:47;;;;;;;2.58;1.52;;;16.30;99.90;;;;;;5028718;28;20340;-64
2022/12/25 14:09:13;;;;;;;3.20;1.80;;;16.00;99.90;;;;;;5031471;28;20038;-62
2022/12/25 14:11:44;;;;;;;2.42;1.50;;;15.50;99.90;;;;;;5027571;28;20037;-64
2022/12/25 14:14:19;;;;;;;2.70;1.60;;;15.10;99.90;;;;;;5029124;28;20041;-62
2022/12/25 14:16:48;;;;;;;3.67;1.40;;;14.70;99.90;;;;;;5030598;28;20473;-64
2022/12/25 14:19:28;;;;;;;2.50;1.45;;;14.30;99.90;;;;;;5021690;28;20367;-63
2022/12/25 14:22:01;;;;;;;4.20;1.35;;;14.20;99.90;;;;;;5011570;28;20034;-63
2022/12/25 14:24:28;;;;;;;2.10;1.27;;;14.10;99.90;;;;;;5025049;28;20058;-68
2022/12/25 14:27:12;;;;;;;2.08;1.33;;;14.00;99.90;;;;;;5031191;28;20033;-62
2022/12/25 14:29:43;;;;;;;2.05;1.10;;;13.80;99.90;;;;;;5030863;28;20120;-63
2022/12/25 14:32:25;;;;;;;1.75;1.10;;;13.80;99.90;;;;;;5025356;28;20040;-64
2022/12/25 14:34:58;;;;;;;2.65;1.30;;;13.70;99.90;;;;;;5029822;28;20048;-62
2022/12/25 14:37:28;;;;;;;2.05;1.00;;;13.70;99.90;;;;;;5031170;28;20108;-64
2022/12/25 14:40:03;;;;;;;1.48;0.75;;;13.60;99.90;;;;;;5030603;28;20047;-64
2022/12/25 14:42:31;;;;;;;1.98;1.20;;;13.60;99.90;;;;;;5030450;28;20072;-65
2022/12/25 14:45:39;;;;;;;1.98;1.08;;;13.60;99.90;;;;;;5013340;28;20070;-65